createdAt,value
2018-07-14T06:24:46.679Z,95.70
2018-07-14T06:27:14.996Z,96.70
2018-07-14T06:29:43.216Z,96.50
2018-07-14T06:32:11.441Z,95.10
2018-07-14T06:34:39.684Z,93.80
2018-07-14T06:37:07.912Z,94.60
2018-07-14T06:39:36.156Z,95.30
2018-07-14T06:42:04.384Z,94.40
2018-07-14T06:44:32.640Z,95.00
2018-07-14T06:47:06.400Z,93.00
2018-07-14T06:49:34.647Z,94.70
2018-07-14T06:52:02.873Z,93.80
2018-07-14T06:54:31.119Z,92.90
2018-07-14T06:56:59.515Z,94.90
2018-07-14T06:59:27.764Z,92.20
2018-07-14T07:01:55.996Z,92.60
2018-07-14T07:04:24.232Z,95.00
2018-07-14T07:06:52.457Z,93.80
2018-07-14T07:09:20.705Z,91.80
2018-07-14T07:11:48.949Z,92.90
2018-07-14T07:14:17.189Z,91.50
2018-07-14T07:16:45.425Z,91.30
2018-07-14T07:19:13.667Z,90.60
2018-07-14T07:21:41.889Z,90.40
2018-07-14T07:24:10.141Z,91.40
2018-07-14T07:26:38.435Z,90.20
2018-07-14T07:29:06.681Z,90.70
2018-07-14T07:31:34.906Z,90.70
2018-07-14T07:34:03.659Z,90.20
2018-07-14T07:36:31.875Z,86.60
2018-07-14T07:39:00.157Z,84.60
2018-07-14T07:41:28.375Z,85.40
2018-07-14T07:43:56.605Z,86.00
2018-07-14T07:46:24.936Z,86.90
2018-07-14T07:48:53.180Z,83.10
2018-07-14T07:51:21.392Z,83.50
2018-07-14T07:53:49.635Z,82.90
2018-07-14T07:56:17.857Z,83.00
2018-07-14T07:58:46.100Z,84.40
2018-07-14T08:01:14.441Z,86.20
2018-07-14T08:03:42.712Z,82.20
2018-07-14T08:06:10.947Z,82.50
2018-07-14T08:08:39.216Z,83.40
2018-07-14T08:11:07.460Z,84.80
2018-07-14T08:13:35.708Z,82.30
2018-07-14T08:16:04.051Z,87.50
2018-07-14T08:18:32.347Z,82.00
2018-07-14T08:21:00.569Z,84.20
2018-07-14T08:23:28.803Z,85.40
2018-07-14T08:25:57.081Z,79.80
2018-07-14T08:28:25.332Z,76.40
2018-07-14T08:30:53.548Z,76.10
2018-07-14T08:33:21.772Z,78.20
2018-07-14T08:35:50.025Z,77.30
2018-07-14T08:38:18.245Z,80.30
2018-07-14T08:40:46.484Z,79.60
2018-07-14T08:43:14.701Z,79.90
2018-07-14T08:45:42.936Z,80.00
2018-07-14T08:48:11.156Z,78.50
2018-07-14T08:50:39.396Z,83.10
2018-07-14T08:53:07.656Z,78.70
2018-07-14T08:55:35.932Z,75.90
2018-07-14T08:58:04.175Z,75.10
2018-07-14T09:00:32.477Z,72.40
2018-07-14T09:03:00.696Z,73.70
2018-07-14T09:05:28.960Z,71.10
2018-07-14T09:07:57.182Z,69.80
2018-07-14T09:10:25.430Z,70.80
2018-07-14T09:12:53.676Z,67.80
2018-07-14T09:15:21.928Z,65.90
2018-07-14T09:17:50.153Z,72.40
2018-07-14T09:20:18.388Z,69.20
2018-07-14T09:22:46.617Z,73.70
2018-07-14T09:25:14.856Z,64.80
2018-07-14T09:27:43.159Z,66.30
2018-07-14T09:30:11.392Z,69.30
2018-07-14T09:32:39.653Z,68.80
2018-07-14T09:35:07.879Z,63.60
2018-07-14T09:37:36.101Z,64.80
2018-07-14T09:40:04.356Z,71.30
2018-07-14T09:42:32.569Z,65.50
2018-07-14T09:45:00.808Z,69.20
2018-07-14T09:47:29.020Z,67.10
2018-07-14T09:49:57.243Z,64.00
2018-07-14T09:52:25.468Z,65.90
2018-07-14T09:54:53.703Z,67.10
2018-07-14T09:57:21.920Z,64.10
2018-07-14T09:59:50.165Z,61.70
2018-07-14T10:02:18.376Z,64.20
2018-07-14T10:04:46.612Z,61.80
2018-07-14T10:07:14.848Z,65.40
2018-07-14T10:09:43.078Z,62.00
2018-07-14T10:12:11.308Z,64.60
2018-07-14T10:14:39.555Z,64.40
2018-07-14T10:17:07.853Z,60.90
2018-07-14T10:19:36.080Z,60.70
2018-07-14T10:22:04.293Z,61.90
2018-07-14T10:24:32.516Z,65.30
2018-07-14T10:27:00.760Z,62.20
2018-07-14T10:29:28.968Z,63.00
2018-07-14T10:31:57.217Z,60.70
2018-07-14T10:34:25.437Z,58.50
2018-07-14T10:36:53.668Z,57.90
2018-07-14T10:39:21.895Z,60.80
2018-07-14T10:41:50.203Z,58.30
2018-07-14T10:44:18.551Z,61.70
2018-07-14T10:46:46.891Z,58.90
2018-07-14T10:49:15.089Z,61.60
2018-07-14T10:51:43.326Z,58.60
2018-07-14T10:54:11.555Z,62.00
2018-07-14T10:56:39.801Z,61.00
2018-07-14T10:59:08.012Z,64.00
2018-07-14T11:01:36.250Z,64.10
2018-07-14T11:04:04.487Z,63.60
2018-07-14T11:06:32.720Z,62.20
2018-07-14T11:09:00.939Z,61.10
2018-07-14T11:11:29.200Z,63.30
2018-07-14T11:13:57.411Z,63.50
2018-07-14T11:16:25.645Z,62.50
2018-07-14T11:18:53.864Z,65.40
2018-07-14T11:21:22.100Z,63.70
2018-07-14T11:23:50.317Z,61.60
2018-07-14T11:26:18.552Z,58.70
2018-07-14T11:28:46.759Z,61.70
2018-07-14T11:31:14.996Z,65.70
2018-07-14T11:33:43.224Z,59.90
2018-07-14T11:36:11.472Z,62.00
2018-07-14T11:38:39.696Z,60.40
2018-07-14T11:41:07.953Z,56.60
2018-07-14T11:43:36.166Z,55.60
2018-07-14T11:46:04.500Z,56.30
2018-07-14T11:48:32.712Z,55.90
2018-07-14T11:51:00.940Z,56.50
2018-07-14T11:53:29.169Z,57.10
2018-07-14T11:55:57.399Z,55.90
2018-07-14T11:58:25.612Z,59.50
2018-07-14T12:00:53.863Z,58.90
2018-07-14T12:03:22.070Z,57.20
2018-07-14T12:05:50.331Z,57.10
2018-07-14T12:08:18.536Z,58.40
2018-07-14T12:10:46.772Z,57.20
2018-07-14T12:13:15.000Z,55.70
2018-07-14T12:15:43.256Z,55.20
2018-07-14T12:18:11.475Z,57.30
2018-07-14T12:20:39.688Z,54.00
2018-07-14T12:23:07.929Z,51.00
2018-07-14T12:25:36.132Z,54.20
2018-07-14T12:28:04.361Z,52.20
2018-07-14T12:30:32.578Z,52.30
2018-07-14T12:33:00.833Z,53.50
2018-07-14T12:35:29.044Z,53.40
2018-07-14T12:37:57.267Z,53.60
2018-07-14T12:40:25.493Z,50.90
2018-07-14T12:42:53.738Z,52.20
2018-07-14T12:45:21.951Z,52.20
2018-07-14T12:47:50.192Z,50.40
2018-07-14T12:50:18.423Z,51.40
2018-07-14T12:52:46.668Z,52.80
2018-07-14T12:55:14.880Z,52.00
2018-07-14T12:57:43.111Z,51.20
2018-07-14T13:00:11.410Z,49.50
2018-07-14T13:02:39.695Z,48.90
2018-07-14T13:05:08.106Z,50.00
2018-07-14T13:07:36.386Z,50.20
2018-07-14T13:10:05.319Z,51.10
2018-07-14T13:12:33.582Z,50.50
2018-07-14T13:15:01.873Z,55.00
2018-07-14T13:17:30.108Z,49.60
2018-07-14T13:19:58.344Z,49.90
2018-07-14T13:22:26.581Z,50.50
2018-07-14T13:24:54.800Z,51.00
2018-07-14T13:27:23.053Z,53.40
2018-07-14T13:29:51.272Z,50.50
2018-07-14T13:32:19.512Z,48.90
2018-07-14T13:34:47.740Z,48.50
2018-07-14T13:37:16.000Z,48.10
2018-07-14T13:39:44.232Z,46.70
2018-07-14T13:42:12.479Z,49.00
2018-07-14T13:44:40.716Z,49.50
2018-07-14T13:47:08.967Z,49.70
2018-07-14T13:49:37.197Z,51.50
2018-07-14T13:52:05.442Z,46.10
2018-07-14T13:54:33.661Z,45.40
2018-07-14T13:57:01.922Z,47.00
2018-07-14T13:59:30.143Z,48.90
2018-07-14T14:01:58.380Z,48.80
2018-07-14T14:04:26.599Z,44.50
2018-07-14T14:06:54.877Z,50.90
2018-07-14T14:09:23.160Z,46.90
2018-07-14T14:11:51.384Z,49.10
2018-07-14T14:14:19.620Z,46.80
2018-07-14T14:16:47.849Z,46.30
2018-07-14T14:19:16.096Z,47.70
2018-07-14T14:21:44.311Z,46.70
2018-07-14T14:24:12.552Z,47.40
2018-07-14T14:26:40.776Z,50.10
2018-07-14T14:29:09.021Z,48.30
2018-07-14T14:31:37.281Z,48.80
2018-07-14T14:34:05.530Z,48.70
2018-07-14T14:36:33.764Z,48.10
2018-07-14T14:39:02.013Z,46.20
2018-07-14T14:41:30.253Z,44.80
2018-07-14T14:43:58.499Z,48.40
2018-07-14T14:46:26.724Z,43.50
2018-07-14T14:48:54.966Z,44.10
2018-07-14T14:51:23.185Z,42.30
2018-07-14T14:53:52.253Z,45.90
2018-07-14T14:56:20.476Z,43.40
2018-07-14T14:58:49.161Z,42.70
2018-07-14T15:01:17.420Z,42.80
2018-07-14T15:03:45.649Z,44.40
2018-07-14T15:06:13.867Z,43.70
2018-07-14T15:08:42.119Z,45.00
2018-07-14T15:11:10.344Z,45.70
2018-07-14T15:13:38.604Z,46.60
2018-07-14T15:16:06.820Z,47.90
2018-07-14T15:18:35.068Z,48.50
2018-07-14T15:21:03.285Z,47.30
2018-07-14T15:23:31.519Z,49.60
2018-07-14T15:25:59.737Z,47.50
2018-07-14T15:28:27.972Z,46.70
2018-07-14T15:30:56.197Z,45.40
2018-07-14T15:33:24.570Z,49.30
2018-07-14T15:35:52.664Z,49.10
2018-07-14T15:38:20.883Z,48.10
2018-07-14T15:40:49.200Z,47.80
2018-07-14T15:43:17.453Z,48.10
2018-07-14T15:45:45.685Z,48.70
2018-07-14T15:48:13.930Z,49.20
2018-07-14T15:50:42.208Z,49.10
2018-07-14T15:53:10.447Z,49.30
2018-07-14T15:55:38.665Z,47.60
2018-07-14T15:58:06.903Z,49.00
2018-07-14T16:00:35.116Z,48.50
2018-07-14T16:03:03.361Z,48.30
2018-07-14T16:05:31.572Z,50.80
2018-07-14T16:07:59.863Z,49.00
2018-07-14T16:10:28.063Z,49.90
2018-07-14T16:12:56.296Z,47.90
2018-07-14T16:15:24.776Z,50.80
2018-07-14T16:17:52.992Z,49.30
2018-07-14T16:20:21.224Z,50.00
2018-07-14T16:22:49.454Z,48.90
2018-07-14T16:25:17.720Z,51.60
2018-07-14T16:27:45.948Z,48.40
2018-07-14T16:30:14.179Z,50.50
2018-07-14T16:32:42.403Z,50.60
2018-07-14T16:35:10.642Z,52.60
2018-07-14T16:37:38.888Z,50.70
2018-07-14T16:40:07.135Z,50.90
2018-07-14T16:42:35.352Z,50.70
2018-07-14T16:45:03.637Z,52.10
2018-07-14T16:47:31.855Z,49.10
2018-07-14T16:50:00.112Z,49.80
2018-07-14T16:52:28.326Z,50.30
2018-07-14T16:54:56.568Z,51.20
2018-07-14T16:57:24.784Z,49.80
2018-07-14T16:59:53.012Z,52.00
2018-07-14T17:02:21.236Z,50.60
2018-07-14T17:04:49.469Z,52.10
2018-07-14T17:07:17.697Z,50.70
2018-07-14T17:09:45.971Z,51.70
2018-07-14T17:12:14.208Z,52.40
2018-07-14T17:14:42.521Z,52.00
2018-07-14T17:17:11.132Z,53.50
2018-07-14T17:19:39.521Z,52.60
2018-07-14T17:22:08.554Z,52.80
2018-07-14T17:24:36.795Z,54.20
2018-07-14T17:27:05.122Z,53.00
2018-07-14T17:29:33.347Z,54.20
2018-07-14T17:32:01.572Z,53.60
2018-07-14T17:34:29.812Z,54.50
2018-07-14T17:36:58.033Z,54.20
2018-07-14T17:39:26.263Z,56.80
2018-07-14T17:41:54.488Z,54.40
2018-07-14T17:44:22.719Z,55.30
2018-07-14T17:46:50.941Z,56.60
2018-07-14T17:49:19.184Z,55.10
2018-07-14T17:51:47.402Z,55.50
2018-07-14T17:54:15.730Z,55.90
2018-07-14T17:56:43.945Z,57.40
2018-07-14T17:59:12.204Z,58.00
2018-07-14T18:01:40.420Z,58.90
2018-07-14T18:04:08.652Z,58.20
2018-07-14T18:06:36.891Z,57.60
2018-07-14T18:09:06.993Z,58.10
2018-07-14T18:11:35.253Z,58.50
2018-07-14T18:14:03.473Z,60.40
2018-07-14T18:16:31.772Z,61.90
2018-07-14T18:18:59.956Z,60.90
2018-07-14T18:21:28.196Z,61.50
2018-07-14T18:23:56.556Z,63.80
2018-07-14T18:26:24.780Z,63.30
2018-07-14T18:28:53.032Z,65.50
2018-07-14T18:31:21.267Z,65.80
2018-07-14T18:33:49.539Z,67.50
2018-07-14T18:36:17.833Z,66.40
2018-07-14T18:38:46.008Z,67.30
2018-07-14T18:41:14.256Z,65.50
2018-07-14T18:43:42.492Z,67.70
2018-07-14T18:46:10.728Z,69.90
2018-07-14T18:48:38.964Z,69.10
2018-07-14T18:51:07.193Z,69.10
2018-07-14T18:53:35.548Z,71.40
2018-07-14T18:56:03.788Z,73.30
2018-07-14T18:58:31.988Z,73.70
2018-07-14T19:01:00.232Z,76.70
2018-07-14T19:03:28.450Z,78.90
2018-07-14T19:05:56.713Z,76.30
2018-07-14T19:08:25.147Z,78.90
2018-07-14T19:10:53.389Z,77.10
2018-07-14T19:13:21.629Z,77.00
2018-07-14T19:15:49.852Z,77.70
2018-07-14T19:18:18.080Z,79.40
2018-07-14T19:20:46.309Z,79.70
2018-07-14T19:23:14.528Z,80.70
2018-07-14T19:25:42.812Z,83.30
2018-07-14T19:28:11.007Z,82.30
2018-07-14T19:30:39.240Z,82.20
2018-07-14T19:33:07.458Z,84.70
2018-07-14T19:35:35.690Z,85.00
2018-07-14T19:38:03.953Z,85.10
2018-07-14T19:40:32.180Z,87.50
2018-07-14T19:43:00.392Z,88.70
2018-07-14T19:45:28.619Z,90.10
2018-07-14T19:47:56.833Z,90.20
2018-07-14T19:50:25.096Z,90.20
2018-07-14T19:52:53.307Z,90.90
2018-07-14T19:55:21.552Z,91.00
2018-07-14T19:57:49.757Z,91.40
2018-07-14T20:00:17.976Z,91.60
2018-07-14T20:02:46.233Z,91.20
2018-07-14T20:05:14.440Z,92.10
2018-07-14T20:07:42.683Z,92.10
2018-07-14T20:10:10.896Z,92.50
2018-07-14T20:12:39.152Z,92.30
2018-07-14T20:15:07.368Z,92.90
